Lake Murray, South Carolina
Current Conditions -  °F | °C
As of 11:15 PM on Wednesday 28 Jan 2015 (Local Time) from KFDW Reporting Station
Clear Clear  
Wind Chill: 34°   Ceiling: Unl
Heat Index: 37°   Visibility: 10mi
Dew Point: 23°   Wind: 5mph
Humidity: 56%   Direction: 140°SE
Pressure: 30.32"   Gusts: NA
Location:  34.1436°N, 81.3335°W
Report Text: KFDW 290415Z AUTO 14004KT 10SM CLR 03/M05 A3032 RMK AO1
Loading
Personal Weather Stations






























Interactive Weather Map New forecast layout! Learn more

10-Day Weather Forecast

Advertisements
Track Severe Weather on mobile